Time;durP1;ratioP1;P1;durP2;ratioP2;P2;SDS_P1;SDS_P2;PMS_P1;PMS_P2;Temp;Humidity;BMP_temperature;BMP_pressure;BME280_temperature;BME280_humidity;BME280_pressure;Samples;Min_cycle;Max_cycle;Signal;HPM_P1;HPM_P2
2022/01/12 00:02:05;;;;;;;55.92;20.75;;;;;;;;;;4968815;28;106132;-64
2022/01/12 00:04:31;;;;;;;64.10;22.40;;;;;;;;;;4967595;28;106783;-65
2022/01/12 00:06:58;;;;;;;72.28;22.45;;;;;;;;;;4967643;28;107324;-64
2022/01/12 00:09:24;;;;;;;61.83;22.20;;;;;;;;;;4967381;28;105660;-65
2022/01/12 00:11:50;;;;;;;65.50;22.85;;;;;;;;;;4963944;28;106321;-64
2022/01/12 00:14:17;;;;;;;71.35;23.95;;;;;;;;;;4970450;28;106735;-64
2022/01/12 00:16:47;;;;;;;73.22;25.33;;;;;;;;;;4967040;28;106749;-64
2022/01/12 00:19:14;;;;;;;73.03;24.50;;;;;;;;;;4959310;28;106101;-65
2022/01/12 00:21:40;;;;;;;69.65;24.42;;;;;;;;;;4950523;28;106007;-65
2022/01/12 00:24:08;;;;;;;70.82;25.30;;;;;;;;;;4967657;28;107018;-64
2022/01/12 00:34:42;;;;;;;69.43;23.45;;;;;;;;;;4962518;28;107445;-64
2022/01/12 00:37:09;;;;;;;65.15;24.42;;;;;;;;;;4961016;28;106043;-64
2022/01/12 00:39:35;;;;;;;70.93;23.92;;;;;;;;;;4966132;28;109780;-64
2022/01/12 00:42:02;;;;;;;64.00;24.08;;;;;;;;;;4963221;28;107277;-64
2022/01/12 00:44:35;;;;;;;65.22;24.45;;;;;;;;;;4961882;28;107455;-64
2022/01/12 00:47:01;;;;;;;62.55;24.58;;;;;;;;;;4965349;28;109952;-64
2022/01/12 00:49:27;;;;;;;67.22;25.25;;;;;;;;;;4956145;28;106338;-64
2022/01/12 00:51:54;;;;;;;65.80;23.17;;;;;;;;;;4958751;28;107565;-64
2022/01/12 00:54:22;;;;;;;66.20;24.10;;;;;;;;;;4967002;28;106973;-64
2022/01/12 00:56:50;;;;;;;55.03;23.50;;;;;;;;;;4967388;28;106025;-64
2022/01/12 00:59:18;;;;;;;65.43;23.60;;;;;;;;;;4946986;28;106291;-64
2022/01/12 01:01:44;;;;;;;65.25;24.38;;;;;;;;;;4962401;28;106091;-64
2022/01/12 01:04:11;;;;;;;60.13;23.80;;;;;;;;;;4964516;28;105844;-64
2022/01/12 01:06:38;;;;;;;63.65;25.27;;;;;;;;;;4964878;28;107364;-65
2022/01/12 01:11:45;;;;;;;62.00;23.98;;;;;;;;;;5036177;27;106331;-64
2022/01/12 01:14:21;;;;;;;60.63;23.33;;;;;;;;;;5023104;27;109475;-64
2022/01/12 01:16:55;;;;;;;66.13;24.27;;;;;;;;;;5017849;27;105869;-64
2022/01/12 01:27:37;;;;;;;57.58;23.27;;;;;;;;;;5009542;27;108123;-66
2022/01/12 01:30:04;;;;;;;64.93;23.50;;;;;;;;;;5015058;27;108999;-64
2022/01/12 01:32:32;;;;;;;65.15;24.10;;;;;;;;;;5022275;27;106675;-65
2022/01/12 01:34:58;;;;;;;67.50;23.55;;;;;;;;;;5020434;27;109500;-65
2022/01/12 01:37:24;;;;;;;60.78;23.70;;;;;;;;;;5015657;27;106117;-64
2022/01/12 01:39:51;;;;;;;64.65;24.27;;;;;;;;;;5024067;27;106929;-64
2022/01/12 01:42:24;;;;;;;65.88;25.15;;;;;;;;;;5013105;27;110128;-65
2022/01/12 01:55:37;;;;;;;61.72;24.50;;;;;;;;;;5019706;27;106517;-66
2022/01/12 01:58:04;;;;;;;71.07;25.60;;;;;;;;;;5006675;27;106826;-64
2022/01/12 02:00:33;;;;;;;67.78;25.17;;;;;;;;;;5022813;27;108261;-64
2022/01/12 02:03:04;;;;;;;71.35;25.45;;;;;;;;;;5016293;27;108970;-64
2022/01/12 02:05:45;;;;;;;65.30;25.10;;;;;;;;;;5006157;27;107467;-64
2022/01/12 02:08:12;;;;;;;62.85;25.63;;;;;;;;;;5008759;27;105575;-65
2022/01/12 02:10:52;;;;;;;68.88;24.65;;;;;;;;;;5029618;27;107882;-64
2022/01/12 02:13:19;;;;;;;74.00;25.83;;;;;;;;;;5018256;27;106545;-64
2022/01/12 02:15:46;;;;;;;71.97;26.15;;;;;;;;;;5021033;27;108021;-64
2022/01/12 02:40:19;;;;;;;75.63;26.70;;;;;;;;;;5023298;27;106607;-64
2022/01/12 02:42:55;;;;;;;75.10;26.45;;;;;;;;;;4998073;27;106280;-64
2022/01/12 02:51:08;;;;;;;85.13;27.55;;;;;;;;;;5027627;27;106417;-64
2022/01/12 02:53:42;;;;;;;86.22;27.63;;;;;;;;;;5002180;27;107885;-64
2022/01/12 02:56:12;;;;;;;101.03;29.25;;;;;;;;;;5010882;27;106251;-64
2022/01/12 02:58:39;;;;;;;108.72;30.33;;;;;;;;;;5020829;27;106682;-64
2022/01/12 03:03:54;;;;;;;101.60;28.48;;;;;;;;;;4998361;27;107293;-64
2022/01/12 03:06:25;;;;;;;92.40;28.45;;;;;;;;;;5025529;27;106279;-64
2022/01/12 03:08:52;;;;;;;92.65;28.10;;;;;;;;;;5029620;27;106996;-64
2022/01/12 03:11:19;;;;;;;99.47;28.35;;;;;;;;;;5010868;27;108421;-64
2022/01/12 03:13:49;;;;;;;92.93;28.98;;;;;;;;;;5003676;27;109236;-64
2022/01/12 03:16:18;;;;;;;101.65;28.77;;;;;;;;;;5011334;27;105732;-64
2022/01/12 03:18:45;;;;;;;87.07;28.17;;;;;;;;;;5000351;28;108688;-64
2022/01/12 03:21:13;;;;;;;114.70;30.92;;;;;;;;;;5007452;27;109133;-64
2022/01/12 03:23:39;;;;;;;98.10;29.52;;;;;;;;;;5009327;27;106772;-65
2022/01/12 03:26:08;;;;;;;103.70;30.48;;;;;;;;;;5012691;27;109294;-65
2022/01/12 03:28:35;;;;;;;;;;;;;;;;;;5013541;27;107052;-65
2022/01/12 03:36:28;;;;;;;87.63;28.40;;;;;;;;;;5024111;27;106619;-66
2022/01/12 03:39:00;;;;;;;87.43;27.20;;;;;;;;;;4993487;27;108276;-66
2022/01/12 03:41:28;;;;;;;79.78;26.98;;;;;;;;;;5010867;27;107167;-66
2022/01/12 03:43:55;;;;;;;84.70;28.50;;;;;;;;;;4999436;27;106203;-66
2022/01/12 03:46:24;;;;;;;90.63;27.20;;;;;;;;;;4995079;27;106663;-66
2022/01/12 03:48:51;;;;;;;89.75;27.05;;;;;;;;;;5013460;27;108477;-65
2022/01/12 03:51:18;;;;;;;89.43;27.70;;;;;;;;;;5011307;27;106497;-66
2022/01/12 03:53:44;;;;;;;83.18;27.63;;;;;;;;;;5026394;27;107416;-66
2022/01/12 03:56:11;;;;;;;78.07;27.58;;;;;;;;;;5012836;27;106030;-65
2022/01/12 03:58:37;;;;;;;84.35;26.83;;;;;;;;;;5005174;27;107194;-66
2022/01/12 04:01:04;;;;;;;86.78;28.10;;;;;;;;;;5011090;27;107414;-66
2022/01/12 04:03:37;;;;;;;81.95;26.80;;;;;;;;;;5005057;27;106652;-65
2022/01/12 04:08:49;;;;;;;84.85;27.77;;;;;;;;;;5009125;27;108701;-66
2022/01/12 04:11:15;;;;;;;87.65;27.45;;;;;;;;;;5010214;27;106215;-66
2022/01/12 04:13:43;;;;;;;90.68;27.90;;;;;;;;;;4996926;27;109718;-65
2022/01/12 04:16:11;;;;;;;82.13;26.15;;;;;;;;;;5011944;27;106056;-66
2022/01/12 04:18:38;;;;;;;86.95;28.77;;;;;;;;;;5008645;27;108731;-66
2022/01/12 04:21:07;;;;;;;90.63;27.88;;;;;;;;;;5022680;27;107520;-66
2022/01/12 04:23:35;;;;;;;83.38;27.38;;;;;;;;;;5024377;27;106326;-65
2022/01/12 04:26:08;;;;;;;92.20;27.35;;;;;;;;;;4992982;28;108367;-65
2022/01/12 04:28:36;;;;;;;97.22;28.65;;;;;;;;;;5024393;27;106351;-65
2022/01/12 04:31:02;;;;;;;88.88;27.17;;;;;;;;;;5010369;27;106932;-65
2022/01/12 04:33:30;;;;;;;92.60;28.63;;;;;;;;;;5006000;27;107602;-65
2022/01/12 04:35:56;;;;;;;85.38;27.50;;;;;;;;;;5002261;28;106131;-65
2022/01/12 04:38:25;;;;;;;81.05;27.40;;;;;;;;;;5002454;27;108897;-67
2022/01/12 04:40:53;;;;;;;77.95;26.80;;;;;;;;;;5007197;27;108701;-65
2022/01/12 04:43:21;;;;;;;96.28;27.65;;;;;;;;;;5000644;28;107776;-65
2022/01/12 04:50:46;;;;;;;92.55;28.50;;;;;;;;;;5000477;28;106144;-65
2022/01/12 04:53:14;;;;;;;102.47;27.98;;;;;;;;;;5022616;27;106931;-66
2022/01/12 04:55:41;;;;;;;109.57;29.73;;;;;;;;;;5007439;27;109027;-64
2022/01/12 04:58:08;;;;;;;109.72;28.98;;;;;;;;;;4998184;27;108318;-65
2022/01/12 05:00:35;;;;;;;103.75;28.60;;;;;;;;;;4996122;28;108473;-64
2022/01/12 05:13:49;;;;;;;162.75;33.00;;;;;;;;;;5006167;27;108232;-64
2022/01/12 05:16:16;;;;;;;131.07;31.20;;;;;;;;;;4996980;27;108806;-65
2022/01/12 05:18:44;;;;;;;168.55;32.90;;;;;;;;;;5002240;27;105977;-64
2022/01/12 05:21:11;;;;;;;183.40;34.70;;;;;;;;;;5005264;27;109014;-64
2022/01/12 05:23:37;;;;;;;152.55;32.90;;;;;;;;;;5014899;27;106065;-65
2022/01/12 05:26:05;;;;;;;161.25;32.90;;;;;;;;;;5001316;27;108925;-64
2022/01/12 05:28:33;;;;;;;140.95;33.15;;;;;;;;;;5001401;27;107577;-64
2022/01/12 05:31:00;;;;;;;180.52;33.15;;;;;;;;;;4993920;27;105953;-64
2022/01/12 05:33:27;;;;;;;231.00;37.28;;;;;;;;;;5009471;27;108308;-64
2022/01/12 05:35:56;;;;;;;197.25;34.45;;;;;;;;;;5009128;27;108364;-64
2022/01/12 05:38:23;;;;;;;214.80;33.60;;;;;;;;;;5013253;27;106988;-64
2022/01/12 05:40:52;;;;;;;150.98;33.95;;;;;;;;;;5005251;28;108794;-64
2022/01/12 05:43:25;;;;;;;148.98;31.48;;;;;;;;;;4993722;27;106334;-64
2022/01/12 05:45:53;;;;;;;139.95;32.80;;;;;;;;;;5006627;27;106819;-64
2022/01/12 05:50:48;;;;;;;196.95;34.65;;;;;;;;;;5006956;27;107026;-64
2022/01/12 05:53:18;;;;;;;186.45;34.88;;;;;;;;;;5008731;27;107994;-64
2022/01/12 05:55:49;;;;;;;136.50;33.38;;;;;;;;;;4993150;27;108339;-64
2022/01/12 05:58:16;;;;;;;154.27;33.33;;;;;;;;;;4997651;27;106248;-64
2022/01/12 06:00:43;;;;;;;160.82;33.88;;;;;;;;;;5034560;27;105850;-64
2022/01/12 06:03:09;;;;;;;156.48;33.58;;;;;;;;;;5008715;27;106612;-65
2022/01/12 06:05:36;;;;;;;164.73;33.33;;;;;;;;;;5014638;27;108498;-64
2022/01/12 06:08:03;;;;;;;148.73;32.92;;;;;;;;;;5004287;27;108988;-64
2022/01/12 06:10:29;;;;;;;120.35;30.88;;;;;;;;;;5021723;27;106291;-64
2022/01/12 06:12:56;;;;;;;116.13;30.65;;;;;;;;;;5004324;27;108631;-64
2022/01/12 06:15:25;;;;;;;119.78;31.15;;;;;;;;;;5012529;27;109208;-64
2022/01/12 06:17:52;;;;;;;146.15;32.35;;;;;;;;;;5008980;27;108007;-64
2022/01/12 06:20:18;;;;;;;131.82;33.33;;;;;;;;;;4993620;28;108004;-64
2022/01/12 06:23:04;;;;;;;165.35;34.80;;;;;;;;;;5005119;27;109085;-64
2022/01/12 06:25:32;;;;;;;133.65;32.03;;;;;;;;;;5009735;27;106964;-64
2022/01/12 06:28:20;;;;;;;133.60;32.42;;;;;;;;;;5004272;27;109013;-65
2022/01/12 06:33:30;;;;;;;124.72;31.10;;;;;;;;;;5016244;27;105990;-64
2022/01/12 06:35:57;;;;;;;146.23;31.30;;;;;;;;;;5020445;27;107440;-64
2022/01/12 06:38:23;;;;;;;152.65;34.53;;;;;;;;;;5000334;27;106236;-65
2022/01/12 06:40:49;;;;;;;125.68;30.55;;;;;;;;;;5006275;28;108436;-64
2022/01/12 06:43:16;;;;;;;139.75;32.80;;;;;;;;;;5005820;28;108643;-64
2022/01/12 06:45:43;;;;;;;156.75;32.88;;;;;;;;;;5005966;27;105968;-64
2022/01/12 06:48:09;;;;;;;119.07;30.70;;;;;;;;;;5030898;27;106676;-65
2022/01/12 06:50:35;;;;;;;128.15;31.35;;;;;;;;;;5008575;27;105942;-64
2022/01/12 06:53:02;;;;;;;138.18;31.05;;;;;;;;;;5009066;27;107827;-64
2022/01/12 06:55:29;;;;;;;182.35;33.78;;;;;;;;;;5011457;27;106061;-64
2022/01/12 06:57:56;;;;;;;170.45;33.17;;;;;;;;;;4996643;27;106055;-64
2022/01/12 07:00:22;;;;;;;117.70;31.67;;;;;;;;;;5020959;27;106216;-66
2022/01/12 07:02:49;;;;;;;134.85;32.83;;;;;;;;;;5000230;27;108982;-64
2022/01/12 07:05:17;;;;;;;114.88;31.17;;;;;;;;;;5006389;27;107704;-64
2022/01/12 07:07:44;;;;;;;102.15;32.53;;;;;;;;;;5021077;27;106726;-64
2022/01/12 07:10:24;;;;;;;108.13;30.73;;;;;;;;;;5003224;27;106858;-66
2022/01/12 07:12:52;;;;;;;120.82;32.78;;;;;;;;;;5010646;27;107517;-66
2022/01/12 07:15:18;;;;;;;113.63;30.90;;;;;;;;;;5002884;28;109213;-66
2022/01/12 07:17:44;;;;;;;106.43;29.00;;;;;;;;;;5000020;27;106295;-66
2022/01/12 07:20:11;;;;;;;99.50;28.25;;;;;;;;;;4994963;27;107990;-64
2022/01/12 07:22:40;;;;;;;84.13;26.58;;;;;;;;;;5000987;27;109479;-67
2022/01/12 07:25:07;;;;;;;89.80;26.52;;;;;;;;;;5014699;27;106622;-66
2022/01/12 07:27:34;;;;;;;88.47;27.20;;;;;;;;;;5024305;27;106739;-65
2022/01/12 07:30:00;;;;;;;93.55;25.55;;;;;;;;;;5018768;27;107328;-64
2022/01/12 07:32:27;;;;;;;92.38;26.40;;;;;;;;;;4992201;27;107397;-64
2022/01/12 07:34:54;;;;;;;99.10;28.90;;;;;;;;;;5018666;27;107709;-64
2022/01/12 07:37:22;;;;;;;94.70;28.45;;;;;;;;;;5018171;27;106112;-64
2022/01/12 07:39:48;;;;;;;99.25;26.75;;;;;;;;;;5019235;27;105597;-64
2022/01/12 07:42:15;;;;;;;88.80;25.52;;;;;;;;;;5014998;27;108011;-65
2022/01/12 07:44:43;;;;;;;98.55;26.83;;;;;;;;;;4988768;27;105656;-64
2022/01/12 07:47:10;;;;;;;90.15;24.42;;;;;;;;;;5023595;27;106973;-64
2022/01/12 07:49:36;;;;;;;84.35;24.95;;;;;;;;;;5024407;27;108969;-64
2022/01/12 07:52:06;;;;;;;89.25;25.45;;;;;;;;;;5027703;27;107063;-64
2022/01/12 07:54:32;;;;;;;85.70;26.25;;;;;;;;;;5026639;27;107794;-64
2022/01/12 07:56:59;;;;;;;105.43;26.80;;;;;;;;;;5022311;27;106642;-64
2022/01/12 07:59:25;;;;;;;107.93;27.63;;;;;;;;;;5017510;27;107586;-65
2022/01/12 08:01:51;;;;;;;96.35;25.38;;;;;;;;;;5013734;27;107365;-65
2022/01/12 08:04:18;;;;;;;97.20;27.80;;;;;;;;;;5015051;27;106227;-65
2022/01/12 08:06:48;;;;;;;112.25;27.50;;;;;;;;;;5014819;27;106664;-64
2022/01/12 08:09:15;;;;;;;93.10;28.00;;;;;;;;;;5027671;27;108990;-64
2022/01/12 08:11:41;;;;;;;104.40;24.60;;;;;;;;;;5024128;27;106573;-65
2022/01/12 08:14:08;;;;;;;95.95;21.05;;;;;;;;;;5002627;27;108985;-65
2022/01/12 08:16:34;;;;;;;71.82;15.50;;;;;;;;;;5020466;27;106091;-65
2022/01/12 08:19:00;;;;;;;71.20;15.30;;;;;;;;;;5018639;27;107638;-68
2022/01/12 08:21:27;;;;;;;73.05;15.35;;;;;;;;;;5018887;27;106510;-65
2022/01/12 08:23:53;;;;;;;74.50;14.35;;;;;;;;;;5016322;27;106153;-65
2022/01/12 08:26:30;;;;;;;80.32;15.07;;;;;;;;;;5015716;27;105850;-64
2022/01/12 08:28:56;;;;;;;85.90;15.73;;;;;;;;;;5022358;27;107025;-63
2022/01/12 08:31:22;;;;;;;77.38;14.85;;;;;;;;;;5027053;27;106577;-64
2022/01/12 08:33:49;;;;;;;65.18;15.55;;;;;;;;;;5017262;27;106643;-64
2022/01/12 08:36:15;;;;;;;88.38;17.80;;;;;;;;;;5026383;27;106362;-65
2022/01/12 08:38:42;;;;;;;71.85;17.10;;;;;;;;;;5012594;27;106405;-65
2022/01/12 08:41:09;;;;;;;79.30;17.00;;;;;;;;;;5007614;27;107423;-66
2022/01/12 08:43:35;;;;;;;83.57;16.45;;;;;;;;;;5018622;27;107212;-65
2022/01/12 08:46:01;;;;;;;78.72;17.52;;;;;;;;;;5020099;27;107221;-64
2022/01/12 08:48:28;;;;;;;63.65;14.35;;;;;;;;;;5023985;27;106510;-64
2022/01/12 08:50:54;;;;;;;61.33;15.90;;;;;;;;;;5022792;27;106633;-65
2022/01/12 08:53:20;;;;;;;63.88;15.80;;;;;;;;;;5020265;27;106946;-65
2022/01/12 08:55:47;;;;;;;69.82;15.43;;;;;;;;;;5002462;27;107409;-63
2022/01/12 08:58:13;;;;;;;87.53;17.10;;;;;;;;;;5019949;27;107625;-65
2022/01/12 09:00:39;;;;;;;75.82;17.17;;;;;;;;;;5021951;27;108145;-65
2022/01/12 09:03:06;;;;;;;70.55;15.35;;;;;;;;;;5019869;27;105810;-63
2022/01/12 09:05:33;;;;;;;80.68;16.23;;;;;;;;;;5025668;27;106634;-64
2022/01/12 09:07:59;;;;;;;87.07;17.00;;;;;;;;;;5024487;27;106300;-64
2022/01/12 09:10:26;;;;;;;72.47;16.40;;;;;;;;;;5012046;27;107673;-65
2022/01/12 09:12:52;;;;;;;71.40;16.40;;;;;;;;;;5015922;27;108581;-64
2022/01/12 09:15:24;;;;;;;84.53;17.63;;;;;;;;;;5015565;27;107898;-64
2022/01/12 09:17:52;;;;;;;65.80;17.60;;;;;;;;;;5023662;27;105887;-64
2022/01/12 09:20:18;;;;;;;62.33;16.40;;;;;;;;;;5014913;27;107375;-64
2022/01/12 09:22:45;;;;;;;57.92;14.43;;;;;;;;;;5010359;27;105592;-64
2022/01/12 09:25:12;;;;;;;65.43;15.60;;;;;;;;;;5029740;27;106478;-64
2022/01/12 09:27:39;;;;;;;76.38;15.35;;;;;;;;;;5025141;27;106385;-64
2022/01/12 09:30:07;;;;;;;60.35;15.02;;;;;;;;;;5028971;27;107068;-64
2022/01/12 09:32:33;;;;;;;71.72;16.33;;;;;;;;;;5013743;27;107664;-65
2022/01/12 09:34:59;;;;;;;56.35;13.05;;;;;;;;;;5020755;27;107431;-64
2022/01/12 09:37:27;;;;;;;59.28;14.25;;;;;;;;;;5013684;27;106859;-64
2022/01/12 09:39:54;;;;;;;61.13;13.30;;;;;;;;;;5019868;27;106982;-63
2022/01/12 09:42:20;;;;;;;53.00;12.65;;;;;;;;;;5009890;27;105908;-64
2022/01/12 09:44:47;;;;;;;56.72;14.35;;;;;;;;;;5019820;27;106723;-64
2022/01/12 09:47:15;;;;;;;50.95;13.05;;;;;;;;;;5017220;27;106892;-63
2022/01/12 09:49:42;;;;;;;57.78;13.50;;;;;;;;;;5023351;27;106276;-64
2022/01/12 09:52:10;;;;;;;55.83;13.65;;;;;;;;;;5012974;27;106842;-64
2022/01/12 09:54:36;;;;;;;58.92;13.30;;;;;;;;;;5022478;27;107546;-64
2022/01/12 09:57:03;;;;;;;58.08;13.55;;;;;;;;;;5025805;27;105892;-64
2022/01/12 09:59:30;;;;;;;58.25;14.48;;;;;;;;;;5024270;27;106004;-64
2022/01/12 10:01:57;;;;;;;60.83;13.02;;;;;;;;;;5002001;27;106591;-64
2022/01/12 10:04:27;;;;;;;59.25;14.32;;;;;;;;;;5028235;27;106570;-64
2022/01/12 10:06:58;;;;;;;52.78;12.13;;;;;;;;;;5016768;27;108383;-64
2022/01/12 10:09:44;;;;;;;51.75;13.55;;;;;;;;;;5022511;27;107990;-64
2022/01/12 10:12:13;;;;;;;54.55;13.98;;;;;;;;;;5015182;27;106950;-64
2022/01/12 10:14:44;;;;;;;46.67;11.90;;;;;;;;;;5009048;27;108701;-64
2022/01/12 10:17:10;;;;;;;;;;;;;;;;;;5022027;27;106109;-64
2022/01/12 10:19:37;;;;;;;51.50;12.10;;;;;;;;;;5020243;27;136826;-65
2022/01/12 10:22:05;;;;;;;46.20;11.50;;;;;;;;;;5028043;27;106176;-64
2022/01/12 10:24:35;;;;;;;49.42;11.32;;;;;;;;;;5012282;27;106502;-64
2022/01/12 10:27:01;;;;;;;;;;;;;;;;;;5028068;27;108728;-64
2022/01/12 10:29:28;;;;;;;50.20;11.80;;;;;;;;;;5017904;27;116292;-64
2022/01/12 10:31:56;;;;;;;47.60;11.35;;;;;;;;;;5026632;27;106191;-65
2022/01/12 10:34:24;;;;;;;42.35;10.40;;;;;;;;;;5028929;27;107690;-64
2022/01/12 10:36:51;;;;;;;40.90;11.05;;;;;;;;;;5015987;27;106316;-64
2022/01/12 10:39:18;;;;;;;49.38;10.70;;;;;;;;;;5024172;27;106613;-65
2022/01/12 10:41:52;;;;;;;31.15;9.68;;;;;;;;;;5011772;27;107063;-65
2022/01/12 10:44:22;;;;;;;36.45;9.82;;;;;;;;;;5021314;27;105508;-64
2022/01/12 10:46:49;;;;;;;40.00;9.73;;;;;;;;;;5017569;27;108098;-65
2022/01/12 10:49:21;;;;;;;40.50;9.63;;;;;;;;;;5011797;27;106808;-64
2022/01/12 10:51:54;;;;;;;36.80;8.57;;;;;;;;;;5016892;27;105925;-64
2022/01/12 10:54:21;;;;;;;35.33;10.05;;;;;;;;;;5011534;27;107688;-65
2022/01/12 10:56:47;;;;;;;35.78;9.18;;;;;;;;;;5029588;27;106653;-64
2022/01/12 10:59:18;;;;;;;35.85;9.43;;;;;;;;;;5012216;27;106841;-65
2022/01/12 11:01:44;;;;;;;47.20;9.98;;;;;;;;;;5027946;27;107284;-64
2022/01/12 11:04:11;;;;;;;39.67;10.38;;;;;;;;;;5014558;27;106394;-64
2022/01/12 11:06:38;;;;;;;36.08;9.40;;;;;;;;;;5014108;27;106737;-64
2022/01/12 11:09:04;;;;;;;44.83;10.55;;;;;;;;;;5015078;27;107006;-66
2022/01/12 11:11:31;;;;;;;43.13;9.38;;;;;;;;;;5015993;27;106706;-64
2022/01/12 11:13:59;;;;;;;34.63;8.57;;;;;;;;;;5019227;27;107778;-63
2022/01/12 11:16:26;;;;;;;34.58;8.93;;;;;;;;;;5010028;28;106642;-64
2022/01/12 11:18:54;;;;;;;39.13;9.32;;;;;;;;;;5024407;27;106695;-64
2022/01/12 11:21:20;;;;;;;37.13;9.05;;;;;;;;;;5024677;27;108159;-65
2022/01/12 11:23:47;;;;;;;34.55;9.20;;;;;;;;;;5024740;27;106046;-64
2022/01/12 11:26:18;;;;;;;32.80;8.43;;;;;;;;;;5014434;27;106646;-66
2022/01/12 11:28:46;;;;;;;36.67;9.05;;;;;;;;;;5033522;27;106370;-64
2022/01/12 11:31:15;;;;;;;33.95;8.77;;;;;;;;;;5030021;27;107660;-65
2022/01/12 11:33:42;;;;;;;33.83;8.60;;;;;;;;;;5010863;27;106562;-65
2022/01/12 11:36:17;;;;;;;28.70;8.20;;;;;;;;;;5015741;27;106970;-65
2022/01/12 11:38:47;;;;;;;31.45;7.72;;;;;;;;;;5022360;27;107311;-65
2022/01/12 11:41:14;;;;;;;31.85;8.95;;;;;;;;;;5028619;27;107074;-65
2022/01/12 11:43:41;;;;;;;31.55;8.25;;;;;;;;;;5012267;27;106373;-66
2022/01/12 11:46:12;;;;;;;27.90;8.00;;;;;;;;;;5011708;27;106837;-65
2022/01/12 11:48:47;;;;;;;28.45;8.70;;;;;;;;;;5008547;27;110460;-65
2022/01/12 11:51:14;;;;;;;32.72;8.85;;;;;;;;;;5034039;27;105931;-66
2022/01/12 11:53:48;;;;;;;32.53;8.60;;;;;;;;;;5022973;27;107464;-65
2022/01/12 11:56:20;;;;;;;39.67;9.50;;;;;;;;;;5016588;27;106225;-65
2022/01/12 11:58:54;;;;;;;38.15;8.93;;;;;;;;;;5023349;27;106880;-66
2022/01/12 12:01:22;;;;;;;30.40;8.38;;;;;;;;;;5018327;27;107432;-64
2022/01/12 12:03:56;;;;;;;31.20;8.93;;;;;;;;;;5019519;27;106181;-64
2022/01/12 12:06:23;;;;;;;25.58;8.70;;;;;;;;;;5027594;27;106743;-66
2022/01/12 12:09:04;;;;;;;37.97;9.25;;;;;;;;;;5021300;27;107366;-66
2022/01/12 12:11:32;;;;;;;33.95;8.82;;;;;;;;;;5015525;27;106519;-64
2022/01/12 12:14:00;;;;;;;37.33;9.52;;;;;;;;;;5009455;27;106490;-64
2022/01/12 12:16:27;;;;;;;30.92;9.05;;;;;;;;;;5012877;27;107814;-65
2022/01/12 12:18:55;;;;;;;32.50;8.98;;;;;;;;;;5009502;28;106829;-65
2022/01/12 12:21:21;;;;;;;35.28;9.40;;;;;;;;;;5023759;27;107341;-64
2022/01/12 12:23:47;;;;;;;36.33;9.50;;;;;;;;;;5028862;27;106026;-65
2022/01/12 12:26:15;;;;;;;28.63;8.98;;;;;;;;;;5024236;27;106061;-65
2022/01/12 12:28:47;;;;;;;35.63;9.02;;;;;;;;;;5021037;27;107471;-65
2022/01/12 12:31:24;;;;;;;29.90;7.78;;;;;;;;;;5023500;27;106385;-65
2022/01/12 12:34:10;;;;;;;33.80;9.18;;;;;;;;;;5013611;27;106235;-65
2022/01/12 12:36:36;;;;;;;37.40;8.57;;;;;;;;;;5011007;27;107765;-67
2022/01/12 12:39:08;;;;;;;30.63;8.88;;;;;;;;;;5018318;27;105919;-68
2022/01/12 12:41:38;;;;;;;29.90;8.82;;;;;;;;;;5019881;27;107353;-67
2022/01/12 12:44:05;;;;;;;32.72;9.43;;;;;;;;;;5024469;27;106148;-69
2022/01/12 12:46:32;;;;;;;26.73;8.90;;;;;;;;;;5027687;27;107866;-67
2022/01/12 12:48:58;;;;;;;28.83;9.00;;;;;;;;;;5017348;27;107350;-66
2022/01/12 12:51:24;;;;;;;29.00;9.20;;;;;;;;;;5017356;27;107440;-67
2022/01/12 12:53:56;;;;;;;28.77;8.18;;;;;;;;;;5015106;27;106677;-66
2022/01/12 12:56:27;;;;;;;37.83;9.38;;;;;;;;;;5014986;27;108274;-67
2022/01/12 12:58:54;;;;;;;35.35;9.45;;;;;;;;;;5013879;27;107120;-65
2022/01/12 13:01:23;;;;;;;29.60;9.52;;;;;;;;;;5018149;27;108352;-65
2022/01/12 13:03:51;;;;;;;38.15;10.52;;;;;;;;;;5020004;27;106871;-66
2022/01/12 13:06:18;;;;;;;34.17;9.80;;;;;;;;;;5020264;27;107226;-66
2022/01/12 13:08:52;;;;;;;31.60;9.57;;;;;;;;;;5000886;27;107516;-65
2022/01/12 13:11:18;;;;;;;37.47;10.85;;;;;;;;;;5017397;27;106634;-66
2022/01/12 13:13:54;;;;;;;44.22;10.85;;;;;;;;;;5015364;27;107898;-67
2022/01/12 13:16:20;;;;;;;29.52;9.90;;;;;;;;;;5013641;27;107410;-65
2022/01/12 13:18:47;;;;;;;35.03;8.70;;;;;;;;;;5021300;27;107133;-66
2022/01/12 13:21:16;;;;;;;28.77;9.05;;;;;;;;;;5015692;27;107190;-66
2022/01/12 13:23:43;;;;;;;31.95;9.15;;;;;;;;;;5000897;27;107879;-65
2022/01/12 13:26:12;;;;;;;31.58;9.15;;;;;;;;;;5017360;27;106777;-66
2022/01/12 13:28:39;;;;;;;31.10;9.52;;;;;;;;;;5011820;27;107610;-66
2022/01/12 13:31:10;;;;;;;29.55;8.55;;;;;;;;;;5017073;27;106843;-66
2022/01/12 13:33:41;;;;;;;34.33;9.00;;;;;;;;;;5000856;27;106934;-66
2022/01/12 13:36:11;;;;;;;30.77;9.50;;;;;;;;;;5013595;27;107613;-66
2022/01/12 13:38:38;;;;;;;27.60;9.38;;;;;;;;;;5013672;27;106601;-66
2022/01/12 13:41:12;;;;;;;31.30;9.45;;;;;;;;;;5020945;27;106168;-68
2022/01/12 13:43:41;;;;;;;42.70;10.38;;;;;;;;;;5020287;27;105623;-68
2022/01/12 13:46:13;;;;;;;31.20;9.80;;;;;;;;;;5013194;27;106515;-68
2022/01/12 13:49:02;;;;;;;;;;;;;;;;;;5020029;27;107334;-65
2022/01/12 13:51:36;;;;;;;33.90;10.32;;;;;;;;;;5014140;27;118267;-67
2022/01/12 13:54:03;;;;;;;38.53;10.00;;;;;;;;;;5020714;27;106940;-67
2022/01/12 13:56:34;;;;;;;36.83;10.57;;;;;;;;;;5012260;27;108840;-67
2022/01/12 13:59:00;;;;;;;40.55;10.50;;;;;;;;;;5012888;27;106236;-67
2022/01/12 14:01:31;;;;;;;39.95;10.73;;;;;;;;;;5018090;27;106088;-68
2022/01/12 14:04:07;;;;;;;36.17;10.38;;;;;;;;;;5024278;27;106785;-67
2022/01/12 14:06:42;;;;;;;28.38;9.77;;;;;;;;;;5013573;27;107376;-65
2022/01/12 14:11:53;;;;;;;32.67;9.48;;;;;;;;;;5011474;27;107160;-66
2022/01/12 14:14:20;;;;;;;41.00;11.65;;;;;;;;;;5010344;27;106562;-69
2022/01/12 14:16:47;;;;;;;35.53;11.50;;;;;;;;;;5009738;27;108553;-66
2022/01/12 14:19:16;;;;;;;46.85;12.68;;;;;;;;;;5018829;27;105694;-65
2022/01/12 14:21:56;;;;;;;38.25;12.15;;;;;;;;;;5014096;27;107342;-67
2022/01/12 14:24:22;;;;;;;42.65;12.52;;;;;;;;;;5018951;27;106319;-66
2022/01/12 14:26:49;;;;;;;44.88;13.55;;;;;;;;;;5022139;27;107415;-65
2022/01/12 14:29:15;;;;;;;34.78;13.65;;;;;;;;;;5020638;27;107590;-65
2022/01/12 14:31:43;;;;;;;47.45;14.15;;;;;;;;;;5022481;27;106667;-65
2022/01/12 14:34:09;;;;;;;42.95;14.00;;;;;;;;;;5015823;27;106729;-65
2022/01/12 14:36:36;;;;;;;40.38;14.45;;;;;;;;;;5014550;27;108738;-65
2022/01/12 14:39:02;;;;;;;45.42;14.15;;;;;;;;;;5021472;27;106433;-67
2022/01/12 14:41:29;;;;;;;46.78;14.32;;;;;;;;;;5020624;27;106382;-66
2022/01/12 14:43:55;;;;;;;43.88;14.88;;;;;;;;;;5023311;27;106901;-66
2022/01/12 14:46:22;;;;;;;44.97;14.35;;;;;;;;;;5023623;27;108169;-68
2022/01/12 14:48:48;;;;;;;51.85;15.23;;;;;;;;;;5021141;27;107152;-68
2022/01/12 14:51:15;;;;;;;47.28;15.25;;;;;;;;;;5016617;27;108250;-67
2022/01/12 14:53:42;;;;;;;53.88;14.65;;;;;;;;;;5018123;27;109784;-66
2022/01/12 14:56:09;;;;;;;45.33;15.23;;;;;;;;;;5009607;27;106365;-66
2022/01/12 14:58:36;;;;;;;45.38;15.75;;;;;;;;;;5020601;27;106435;-67
2022/01/12 15:01:02;;;;;;;52.95;16.02;;;;;;;;;;5017094;27;105989;-67
2022/01/12 15:03:29;;;;;;;46.03;14.98;;;;;;;;;;5022985;27;107203;-68
2022/01/12 15:06:01;;;;;;;51.85;15.45;;;;;;;;;;5018019;27;106139;-67
2022/01/12 15:08:27;;;;;;;48.30;15.45;;;;;;;;;;5019712;27;106139;-67
2022/01/12 15:10:54;;;;;;;47.70;16.20;;;;;;;;;;5016248;27;107046;-67
2022/01/12 15:15:51;;;;;;;49.30;15.68;;;;;;;;;;5006890;27;108133;-67
2022/01/12 15:18:19;;;;;;;42.75;16.20;;;;;;;;;;5029849;27;106139;-66
2022/01/12 15:20:45;;;;;;;49.38;15.65;;;;;;;;;;5026179;27;107314;-65
2022/01/12 15:23:12;;;;;;;43.97;14.85;;;;;;;;;;5028837;27;106686;-65
2022/01/12 15:25:38;;;;;;;45.33;14.85;;;;;;;;;;4998478;27;106586;-68
2022/01/12 15:28:06;;;;;;;42.60;15.27;;;;;;;;;;5016754;27;106859;-65
2022/01/12 15:30:34;;;;;;;45.58;15.32;;;;;;;;;;5018171;27;107291;-65
2022/01/12 15:33:00;;;;;;;42.65;13.88;;;;;;;;;;5023097;27;107421;-65
2022/01/12 15:35:27;;;;;;;40.00;13.77;;;;;;;;;;5016476;27;107377;-66
2022/01/12 15:37:53;;;;;;;37.50;12.95;;;;;;;;;;5022583;27;108124;-66
2022/01/12 15:40:20;;;;;;;39.15;14.35;;;;;;;;;;5016924;27;105905;-65
2022/01/12 15:42:46;;;;;;;42.45;14.10;;;;;;;;;;5016829;27;108112;-65
2022/01/12 15:45:13;;;;;;;46.92;15.18;;;;;;;;;;5017129;27;107299;-66
2022/01/12 15:47:39;;;;;;;42.95;14.75;;;;;;;;;;5020443;27;106638;-66